X  Close Metar Aviation Weather Data     YMML Melbourne International Airport
Temperature
23°C Temperature
19°C Dewpoint
78% Humidity



Wind
39 KM/H
24 MPH
11 M/S
21 KTS



10°
North
Current Conditions

Light Showers, Rain, Area Thunderstorm Light Showers, Rain, Area Thunderstorm
Pressure 1005.92 (hPa) - 29.7 (inHg)
Visibility 6.2 (mile) - 10 (km)
Airport
Airport-code YMML

Location: Melbourne International Airport
Distance: 11 (km)

Metar:
YMML 261800Z 01021G32KT 9999 -SHRA VCTS FEW100CB BKN160 23/19 Q1006

Time: 27-01-2022 05:00 AEDT